Dades meteomassalio
Diari Summary for Marc 6, 2018 Units:  Metric    English   Both
« Previous Day
Next Day »
Diari Semanal Mensual Anual Personalitzat
  Maxima: Minima: Mijana:
Temperatura: -17.8 °C -16.8 °C -12.9 °C
Rosada: -17.8 °C -20.2 °C -15.9 °C
Humitat: Humidity % 53 % 70 %
Velocitat del vent: 0 km/h 0 km/h 25.4 km/h
Racha vent: 0 km/h - -
Vent:- - West
Pressio: 0 hPa 33788.9 hPa -
Pluja: 0 mm    
Historical Graphs
 
 
Tabular Data for Marc 6, 2018
Time Temperature Dew Point Pressure Wind Wind Speed Wind Gust Humidity Rainfall Rate (Hourly) solar Conditions
-17.8 °C -17.8 °C 0 hPa Calm     Humidity % 0 mm SolarRadiationWatts/m^2 W/m2 Conditions
00:03 -13.4 °C -14.5 °C 33799.1 hPa NW 38.8 km/h 38.8 km/h 88 % 0 mm 0.0 W/m2 RA
00:08 -13.4 °C -14.6 °C 33788.9 hPa WNW 38.8 km/h 38.8 km/h 87 % 0 mm 0.0 W/m2 CLR
00:13 -13.4 °C -14.6 °C 33788.9 hPa NNW 29.8 km/h 29.8 km/h 87 % 0 mm 0.0 W/m2 CLR
00:18 -13.4 °C -14.6 °C 33799.1 hPa NW 29.8 km/h 29.8 km/h 87 % 0 mm 0.0 W/m2 CLR
00:23 -13.4 °C -14.6 °C 33799.1 hPa NW 18.2 km/h 18.2 km/h 87 % 0 mm 0.0 W/m2 CLR
00:28 -13.4 °C -14.6 °C 33799.1 hPa WNW 29.8 km/h 29.8 km/h 87 % 0 mm 0.0 W/m2 CLR
00:33 -13.4 °C -14.7 °C 33799.1 hPa NW 33.6 km/h 33.6 km/h 86 % 0 mm 0.0 W/m2 CLR
00:38 -13.4 °C -14.7 °C 33799.1 hPa NW 32.8 km/h 32.8 km/h 86 % 0 mm 0.0 W/m2 CLR
00:43 -13.4 °C -14.8 °C 33799.1 hPa NW 38.8 km/h 38.8 km/h 85 % 0 mm 0.0 W/m2 CLR
00:48 -13.4 °C -14.8 °C 33799.1 hPa WNW 29.8 km/h 29.8 km/h 85 % 0 mm 0.0 W/m2 CLR
00:53 -13.4 °C -14.7 °C 33809.2 hPa WNW 38.8 km/h 38.8 km/h 86 % 0 mm 0.0 W/m2 CLR
00:58 -13.4 °C -14.8 °C 33809.2 hPa WNW 29.8 km/h 29.8 km/h 85 % 0 mm 0.0 W/m2 CLR
01:03 -13.4 °C -14.8 °C 33809.2 hPa NW 33.6 km/h 33.6 km/h 85 % 0 mm 0.0 W/m2 CLR
01:08 -13.4 °C -14.8 °C 33809.2 hPa NW 29.8 km/h 29.8 km/h 85 % 0 mm 0.0 W/m2 CLR
01:13 -13.4 °C -14.8 °C 33809.2 hPa NNW 29.8 km/h 29.8 km/h 85 % 0 mm 0.0 W/m2 CLR
01:18 -13.4 °C -14.8 °C 33822.8 hPa NW 33.6 km/h 33.6 km/h 85 % 0 mm 0.0 W/m2 CLR
01:23 -13.4 °C -14.8 °C 33822.8 hPa NNW 23.8 km/h 23.8 km/h 85 % 0 mm 0.0 W/m2 CLR
01:28 -13.4 °C -14.9 °C 33822.8 hPa NW 23.8 km/h 23.8 km/h 84 % 0 mm 0.0 W/m2 CLR
01:33 -13.4 °C -14.9 °C 33822.8 hPa WNW 20.8 km/h 20.8 km/h 84 % 0 mm 0.0 W/m2 CLR
01:38 -13.8 °C -15.2 °C 33822.8 hPa NW 20.9 km/h 20.9 km/h 84 % 0 mm 0.0 W/m2 CLR
01:43 -13.8 °C -15.3 °C 33822.8 hPa NNW 12.9 km/h 12.9 km/h 83 % 0 mm 0.0 W/m2 CLR
01:48 -13.8 °C -15.3 °C 33832.9 hPa NW 29.8 km/h 29.8 km/h 83 % 0 mm 0.0 W/m2 CLR
01:53 -13.8 °C -15.4 °C 33832.9 hPa NW 32.8 km/h 32.8 km/h 82 % 0 mm 0.0 W/m2 CLR
01:58 -13.4 °C -15.2 °C 33832.9 hPa WNW 32.8 km/h 32.8 km/h 81 % 0 mm 0.0 W/m2 CLR
02:03 -13.4 °C -15.2 °C 33832.9 hPa WNW 29.8 km/h 29.8 km/h 81 % 0 mm 0.0 W/m2 CLR
02:08 -13.8 °C -15.4 °C 33832.9 hPa WNW 32.8 km/h 32.8 km/h 81 % 0 mm 0.0 W/m2 CLR
02:13 -13.8 °C -15.4 °C 33832.9 hPa NW 26.9 km/h 26.9 km/h 81 % 0 mm 0.0 W/m2 CLR
02:18 -13.8 °C -15.4 °C 33832.9 hPa NW 38.8 km/h 38.8 km/h 81 % 0 mm 0.0 W/m2 CLR
02:23 -13.8 °C -15.4 °C 33832.9 hPa WNW 35.7 km/h 35.7 km/h 81 % 0 mm 0.0 W/m2 CLR
02:28 -13.8 °C -15.6 °C 33832.9 hPa WNW 36.2 km/h 36.2 km/h 80 % 0 mm 0.0 W/m2 CLR
02:33 -13.8 °C -15.6 °C 33843.1 hPa WNW 41.7 km/h 41.7 km/h 80 % 0 mm 0.0 W/m2 CLR
02:38 -13.8 °C -15.6 °C 33843.1 hPa NW 38.8 km/h 38.8 km/h 80 % 0 mm 0.0 W/m2 CLR
02:43 -13.8 °C -15.6 °C 33843.1 hPa NW 41.4 km/h 41.4 km/h 80 % 0 mm 0.0 W/m2 CLR
02:48 -13.8 °C -15.4 °C 33843.1 hPa NW 32.8 km/h 32.8 km/h 81 % 0 mm 0.0 W/m2 CLR
02:53 -13.4 °C -15.2 °C 33843.1 hPa WNW 46.7 km/h 46.7 km/h 81 % 0 mm 0.0 W/m2 CLR
02:58 -13.4 °C -15.2 °C 33843.1 hPa NW 35.7 km/h 35.7 km/h 80 % 0 mm 0.0 W/m2 CLR
03:03 -13.4 °C -15.2 °C 33843.1 hPa NNW 31.1 km/h 31.1 km/h 80 % 0 mm 0.0 W/m2 CLR
03:08 -13.4 °C -15.2 °C 33843.1 hPa NW 31.1 km/h 31.1 km/h 80 % 0 mm 0.0 W/m2 CLR
03:13 -13.4 °C -15.2 °C 33843.1 hPa NW 29.8 km/h 29.8 km/h 80 % 0 mm 0.0 W/m2 CLR
03:18 -13.4 °C -15.2 °C 33843.1 hPa NNW 29.8 km/h 29.8 km/h 80 % 0 mm 0.0 W/m2 CLR
03:23 -13.4 °C -15.2 °C 33843.1 hPa NW 26.9 km/h 26.9 km/h 80 % 0 mm 0.0 W/m2 CLR
03:28 -13.4 °C -15.2 °C 33843.1 hPa NW 32.8 km/h 32.8 km/h 80 % 0 mm 0.0 W/m2 CLR
03:33 -13.4 °C -15.2 °C 33843.1 hPa NW 29.8 km/h 29.8 km/h 80 % 0 mm 0.0 W/m2 CLR
03:38 -13.4 °C -15.2 °C 33843.1 hPa WNW 29.8 km/h 29.8 km/h 80 % 0 mm 0.0 W/m2 CLR
03:43 -13.4 °C -15.2 °C 33843.1 hPa NW 32.8 km/h 32.8 km/h 80 % 0 mm 0.0 W/m2 CLR
03:48 -13.4 °C -15.2 °C 33856.6 hPa NNW 26.9 km/h 26.9 km/h 80 % 0 mm 0.0 W/m2 CLR
03:53 -13.4 °C -15.2 °C 33856.6 hPa NW 23.3 km/h 23.3 km/h 80 % 0 mm 0.0 W/m2 CLR
03:58 -13.4 °C -15.2 °C 33856.6 hPa WNW 20.8 km/h 20.8 km/h 80 % 0 mm 0.0 W/m2 CLR
04:03 -13.4 °C -15.2 °C 33856.6 hPa NW 29.8 km/h 29.8 km/h 80 % 0 mm 0.0 W/m2 CLR
04:08 -13.4 °C -15.3 °C 33856.6 hPa WNW 26.9 km/h 26.9 km/h 79 % 0 mm 0.0 W/m2 CLR
04:13 -13.4 °C -15.3 °C 33856.6 hPa NW 41.7 km/h 41.7 km/h 79 % 0 mm 0.0 W/m2 CLR
04:18 -13.4 °C -15.3 °C 33856.6 hPa NW 31.1 km/h 31.1 km/h 79 % 0 mm 0.0 W/m2 CLR
04:24 -13.4 °C -15.4 °C 33856.6 hPa NW 38.8 km/h 38.8 km/h 78 % 0 mm 0.0 W/m2 CLR
04:29 -13.4 °C -15.4 °C 33856.6 hPa NW 29.8 km/h 29.8 km/h 78 % 0 mm 0.0 W/m2 CLR
04:34 -13.4 °C -15.4 °C 33856.6 hPa WNW 36.2 km/h 36.2 km/h 78 % 0 mm 0.0 W/m2 CLR
04:39 -13.4 °C -15.4 °C 33856.6 hPa NW 26.9 km/h 26.9 km/h 78 % 0 mm 0.0 W/m2 CLR
04:44 -13.8 °C -15.7 °C 33866.8 hPa WNW 26.9 km/h 26.9 km/h 79 % 0 mm 0.0 W/m2 CLR
04:49 -13.8 °C -15.7 °C 33866.8 hPa WNW 29.8 km/h 29.8 km/h 78 % 0 mm 0.0 W/m2 CLR
04:54 -13.8 °C -15.7 °C 33866.8 hPa WNW 29.8 km/h 29.8 km/h 78 % 0 mm 0.0 W/m2 CLR
04:59 -13.8 °C -15.7 °C 33866.8 hPa WNW 26.9 km/h 26.9 km/h 78 % 0 mm 0.0 W/m2 CLR
05:04 -14.1 °C -16.1 °C 33866.8 hPa WNW 29.8 km/h 29.8 km/h 78 % 0 mm 0.0 W/m2 CLR
05:09 -14.1 °C -16.1 °C 33866.8 hPa WNW 23.8 km/h 23.8 km/h 78 % 0 mm 0.0 W/m2 CLR
05:14 -14.1 °C -16.1 °C 33866.8 hPa NW 29.8 km/h 29.8 km/h 78 % 0 mm 0.0 W/m2 CLR
05:19 -14.1 °C -16.1 °C 33866.8 hPa WNW 28.5 km/h 28.5 km/h 78 % 0 mm 0.0 W/m2 CLR
05:24 -14.1 °C -16.2 °C 33866.8 hPa NW 38.8 km/h 38.8 km/h 77 % 0 mm 0.0 W/m2 CLR
05:29 -13.8 °C -15.9 °C 33866.8 hPa NW 44.7 km/h 44.7 km/h 77 % 0 mm 0.0 W/m2 CLR
05:34 -13.4 °C -15.8 °C 33866.8 hPa NW 44.7 km/h 44.7 km/h 75 % 0 mm 0.0 W/m2 CLR
05:39 -13.4 °C -15.9 °C 33866.8 hPa NNW 44.7 km/h 44.7 km/h 74 % 0 mm 0.0 W/m2 CLR
05:44 -13.4 °C -15.9 °C 33866.8 hPa NNW 44.1 km/h 44.1 km/h 74 % 0 mm 0.0 W/m2 CLR
05:49 -13.4 °C -15.9 °C 33866.8 hPa NW 38.8 km/h 38.8 km/h 74 % 0 mm 0.0 W/m2 CLR
05:54 -13.4 °C -15.9 °C 33866.8 hPa NW 38.8 km/h 38.8 km/h 74 % 0 mm 0.0 W/m2 CLR
05:59 -13.4 °C -15.9 °C 33866.8 hPa NW 35.7 km/h 35.7 km/h 74 % 0 mm 0.0 W/m2 CLR
06:04 -13.4 °C -15.9 °C 33866.8 hPa NNW 36.2 km/h 36.2 km/h 74 % 0 mm 0.0 W/m2 CLR
06:09 -13.4 °C -15.9 °C 33866.8 hPa NW 44.7 km/h 44.7 km/h 74 % 0 mm 0.0 W/m2 CLR
06:14 -13.4 °C -16 °C 33880.3 hPa NW 32.8 km/h 32.8 km/h 73 % 0 mm 0.0 W/m2 CLR
06:19 -13.4 °C -16 °C 33880.3 hPa WNW 62.6 km/h 62.6 km/h 73 % 0 mm 0.0 W/m2 CLR
06:24 -13.4 °C -16 °C 33880.3 hPa NW 32.8 km/h 32.8 km/h 73 % 0 mm 0.0 W/m2 CLR
06:29 -13.8 °C -16.3 °C 33890.5 hPa NW 28.5 km/h 28.5 km/h 73 % 0 mm 0.0 W/m2 CLR
06:34 -13.8 °C -16.3 °C 33890.5 hPa NW 23.8 km/h 23.8 km/h 73 % 0 mm 0.0 W/m2 CLR
06:39 -13.8 °C -16.2 °C 33890.5 hPa WNW 29.8 km/h 29.8 km/h 74 % 0 mm 0.0 W/m2 CLR
06:44 -14.1 °C -16.5 °C 33890.5 hPa NW 17.9 km/h 17.9 km/h 74 % 0 mm 0.0 W/m2 CLR
06:49 -14.1 °C -16.5 °C 33890.5 hPa NW 23.8 km/h 23.8 km/h 74 % 0 mm 0.0 W/m2 CLR
06:54 -14.1 °C -16.5 °C 33890.5 hPa NW 38.8 km/h 38.8 km/h 74 % 0 mm 0.0 W/m2 CLR
06:59 -14.1 °C -16.5 °C 33900.6 hPa WNW 32.8 km/h 32.8 km/h 74 % 0 mm 0.0 W/m2 CLR
07:04 -13.8 °C -16.2 °C 33900.6 hPa NW 29.8 km/h 29.8 km/h 74 % 0 mm 0.0 W/m2 CLR
07:09 -14.1 °C -16.3 °C 33900.6 hPa NW 26.9 km/h 26.9 km/h 75 % 0 mm 0.0 W/m2 CLR
07:14 -14.1 °C -16.3 °C 33900.6 hPa NW 20.9 km/h 20.9 km/h 75 % 0 mm 0.0 W/m2 CLR
07:19 -14.1 °C -16.3 °C 33914.2 hPa NNW 20.9 km/h 20.9 km/h 76 % 0 mm 0.0 W/m2 OVC
07:24 -14.4 °C -16.4 °C 33914.2 hPa NW 15 km/h 15 km/h 77 % 0 mm 0.0 W/m2 OVC
07:29 -14.7 °C -16.7 °C 33914.2 hPa NW 15 km/h 15 km/h 78 % 0 mm 5.0 W/m2 OVC
07:34 -14.7 °C -16.7 °C 33914.2 hPa WNW 20.9 km/h 20.9 km/h 78 % 0 mm 7.0 W/m2 BKN
07:39 -14.7 °C -16.8 °C 33914.2 hPa WNW 17.9 km/h 17.9 km/h 77 % 0 mm 9.0 W/m2 BKN
07:44 -14.7 °C -16.8 °C 33914.2 hPa NW 23.8 km/h 23.8 km/h 76 % 0 mm 11.0 W/m2 BKN
07:49 -14.7 °C -17 °C 33914.2 hPa NW 20.9 km/h 20.9 km/h 75 % 0 mm 14.0 W/m2 BKN
07:54 -15 °C -17.4 °C 33914.2 hPa NW 26.9 km/h 26.9 km/h 74 % 0 mm 18.0 W/m2 BKN
07:59 -15 °C -17.4 °C 33914.2 hPa WNW 28.5 km/h 28.5 km/h 73 % 0 mm 26.0 W/m2 BKN
08:04 -15 °C -17.6 °C 33914.2 hPa NW 20.9 km/h 20.9 km/h 72 % 0 mm 33.0 W/m2 BKN
08:09 -15 °C -17.6 °C 33914.2 hPa WNW 23.8 km/h 23.8 km/h 72 % 0 mm 53.0 W/m2 SCT
08:14 -15 °C -17.7 °C 33924.3 hPa WNW 15 km/h 15 km/h 71 % 0 mm 56.0 W/m2 SCT
08:19 -14.7 °C -17.4 °C 33914.2 hPa West 6 km/h 6 km/h 71 % 0 mm 81.0 W/m2 FEW
08:24 -14.7 °C -17.4 °C 33914.2 hPa Calm     71 % 0 mm 93.0 W/m2 CLR
08:29 -14.7 °C -17.4 °C 33914.2 hPa WNW 2.6 km/h 2.6 km/h 71 % 0 mm 118.0 W/m2 CLR
08:34 -14.4 °C -17.1 °C 33914.2 hPa WNW 23.8 km/h 23.8 km/h 71 % 0 mm 137.0 W/m2 CLR
08:39 -14.4 °C -17.1 °C 33914.2 hPa Calm     71 % 0 mm 120.0 W/m2 CLR
08:44 -14.1 °C -16.8 °C 33924.3 hPa Calm     71 % 0 mm 114.0 W/m2 CLR
08:49 -14.1 °C -16.9 °C 33924.3 hPa WNW 23.8 km/h 23.8 km/h 70 % 0 mm 137.0 W/m2 CLR
08:54 -13.8 °C -16.7 °C 33924.3 hPa WNW 20.9 km/h 20.9 km/h 69 % 0 mm 214.0 W/m2 CLR
08:59 -13.4 °C -16.3 °C 33924.3 hPa NW 23.8 km/h 23.8 km/h 70 % 0 mm 232.0 W/m2 CLR
09:04 -13.2 °C -16.1 °C 33924.3 hPa NNW 23.8 km/h 23.8 km/h 69 % 0 mm 251.0 W/m2 CLR
09:09 -13.2 °C -16 °C 33924.3 hPa NW 29.8 km/h 29.8 km/h 70 % 0 mm 267.0 W/m2 CLR
09:14 -12.8 °C -15.6 °C 33924.3 hPa NW 26.9 km/h 26.9 km/h 71 % 0 mm 285.0 W/m2 CLR
09:19 -12.8 °C -15.7 °C 33924.3 hPa NNW 23.8 km/h 23.8 km/h 70 % 0 mm 301.0 W/m2 CLR
09:24 -12.6 °C -15.7 °C 33924.3 hPa NW 29.8 km/h 29.8 km/h 68 % 0 mm 315.0 W/m2 CLR
09:29 -12.6 °C -15.7 °C 33924.3 hPa NNW 29.8 km/h 29.8 km/h 68 % 0 mm 330.0 W/m2 CLR
09:34 -12.6 °C -15.9 °C 33924.3 hPa WNW 44.7 km/h 44.7 km/h 66 % 0 mm 346.0 W/m2 CLR
09:39 -12.6 °C -15.9 °C 33924.3 hPa WNW 35.7 km/h 35.7 km/h 66 % 0 mm 362.0 W/m2 CLR
09:44 -12.6 °C -15.9 °C 33924.3 hPa WNW 31.1 km/h 31.1 km/h 66 % 0 mm 374.0 W/m2 CLR
09:49 -12.2 °C -15.7 °C 33924.3 hPa WNW 41.7 km/h 41.7 km/h 65 % 0 mm 390.0 W/m2 CLR
09:54 -12.2 °C -15.6 °C 33924.3 hPa NW 29.8 km/h 29.8 km/h 66 % 0 mm 404.0 W/m2 CLR
09:59 -12.2 °C -15.8 °C 33924.3 hPa NW 29.8 km/h 29.8 km/h 64 % 0 mm 422.0 W/m2 CLR
10:04 -11.9 °C -15.3 °C 33937.9 hPa NW 41.7 km/h 41.7 km/h 66 % 0 mm 436.0 W/m2 CLR
10:10 -11.9 °C -15.4 °C 33924.3 hPa NNW 36.2 km/h 36.2 km/h 65 % 0 mm 450.0 W/m2 CLR
10:15 -11.9 °C -15.3 °C 33924.3 hPa NNW 41.7 km/h 41.7 km/h 66 % 0 mm 462.0 W/m2 CLR
10:20 -11.6 °C -15.2 °C 33937.9 hPa NW 50.7 km/h 50.7 km/h 64 % 0 mm 478.0 W/m2 CLR
10:25 -11.6 °C -15.2 °C 33924.3 hPa NW 35.7 km/h 35.7 km/h 64 % 0 mm 490.0 W/m2 CLR
10:30 -11.6 °C -15.4 °C 33924.3 hPa NNW 33.6 km/h 33.6 km/h 63 % 0 mm 503.0 W/m2 CLR
10:35 -11.6 °C -15.6 °C 33924.3 hPa NW 41.7 km/h 41.7 km/h 61 % 0 mm 517.0 W/m2 CLR
10:40 -11.6 °C -15.2 °C 33937.9 hPa NNW 36.2 km/h 36.2 km/h 64 % 0 mm 529.0 W/m2 CLR
10:45 -11.3 °C -15.1 °C 33937.9 hPa NNW 38.8 km/h 38.8 km/h 63 % 0 mm 545.0 W/m2 CLR
10:50 -11.3 °C -15.2 °C 33937.9 hPa NNW 35.7 km/h 35.7 km/h 62 % 0 mm 563.0 W/m2 CLR
10:55 -11.3 °C -15.6 °C 33924.3 hPa NW 35.7 km/h 35.7 km/h 59 % 0 mm 606.0 W/m2 CLR
11:00 -11.3 °C -15.4 °C 33924.3 hPa NNW 29.8 km/h 29.8 km/h 60 % 0 mm 647.0 W/m2 CLR
11:05 -11.3 °C -15.3 °C 33924.3 hPa NNW 33.6 km/h 33.6 km/h 61 % 0 mm 591.0 W/m2 CLR
11:10 -11 °C -14.8 °C 33924.3 hPa NNW 29.8 km/h 29.8 km/h 63 % 0 mm 599.0 W/m2 CLR
11:15 -11 °C -15.1 °C 33924.3 hPa NNW 29.8 km/h 29.8 km/h 61 % 0 mm 601.0 W/m2 CLR
11:20 -10.7 °C -14.6 °C 33924.3 hPa NNW 29.8 km/h 29.8 km/h 62 % 0 mm 610.0 W/m2 CLR
11:25 -10.7 °C -14.6 °C 33924.3 hPa NW 38.8 km/h 38.8 km/h 62 % 0 mm 619.0 W/m2 CLR
11:30 -10.4 °C -14.7 °C 33924.3 hPa NW 32.8 km/h 32.8 km/h 59 % 0 mm 629.0 W/m2 CLR
11:35 -10.4 °C -14.7 °C 33924.3 hPa WNW 38.8 km/h 38.8 km/h 59 % 0 mm 636.0 W/m2 CLR
11:40 -10.4 °C -14.9 °C 33924.3 hPa NW 44.7 km/h 44.7 km/h 58 % 0 mm 649.0 W/m2 CLR
11:45 -10.7 °C -15.1 °C 33924.3 hPa NW 32.8 km/h 32.8 km/h 59 % 0 mm 649.0 W/m2 CLR
11:50 -10.4 °C -14.9 °C 33924.3 hPa NNW 35.7 km/h 35.7 km/h 58 % 0 mm 657.0 W/m2 CLR
11:55 -10.1 °C -14.4 °C 33924.3 hPa West 32.8 km/h 32.8 km/h 59 % 0 mm 666.0 W/m2 CLR
12:00 -10.4 °C -14.9 °C 33914.2 hPa North 38.8 km/h 38.8 km/h 58 % 0 mm 673.0 W/m2 CLR
12:05 -10.4 °C -14.7 °C 33914.2 hPa NNW 29.8 km/h 29.8 km/h 59 % 0 mm 679.0 W/m2 CLR
12:10 -10.1 °C -14.6 °C 33914.2 hPa NNW 35.7 km/h 35.7 km/h 58 % 0 mm 684.0 W/m2 CLR
12:15 -10.1 °C -14.6 °C 33914.2 hPa North 35.7 km/h 35.7 km/h 58 % 0 mm 689.0 W/m2 CLR
12:20 -10.1 °C -14.6 °C 33914.2 hPa NNE 32.8 km/h 32.8 km/h 58 % 0 mm 701.0 W/m2 CLR
12:25 -10.1 °C -14.7 °C 33900.6 hPa NE 32.8 km/h 32.8 km/h 57 % 0 mm 721.0 W/m2 CLR
12:30 -10.1 °C -14.4 °C 33900.6 hPa ENE 12.9 km/h 12.9 km/h 59 % 0 mm 875.0 W/m2 CLR
12:35 -9.8 °C -14.4 °C 33900.6 hPa NNE 23.3 km/h 23.3 km/h 57 % 0 mm 772.0 W/m2 CLR
12:40 -9.8 °C -14.6 °C 33900.6 hPa NNW 20.8 km/h 20.9 km/h 56 % 0 mm 796.0 W/m2 CLR
12:45 -10.1 °C -15.3 °C 33900.6 hPa WNW 29.8 km/h 29.8 km/h 53 % 0 mm 236.0 W/m2 CLR
12:50 -10.4 °C -15.4 °C 33900.6 hPa WNW 20.9 km/h 20.9 km/h 54 % 0 mm 304.0 W/m2 CLR
12:55 -10.4 °C -15.3 °C 33900.6 hPa Calm     55 % 0 mm 301.0 W/m2 CLR
13:00 -10.4 °C -14.9 °C 33900.6 hPa North 29.8 km/h 29.8 km/h 58 % 0 mm 302.0 W/m2 CLR
13:05 -10.1 °C -14.9 °C 33900.6 hPa North 20.8 km/h 20.8 km/h 56 % 0 mm 939.0 W/m2 CLR
13:10 -9.4 °C -14.1 °C 33900.6 hPa North 32.8 km/h 32.8 km/h 57 % 0 mm 401.0 W/m2 CLR
13:15 -9.8 °C -14.6 °C 33900.6 hPa NNE 23.8 km/h 23.8 km/h 56 % 0 mm 381.0 W/m2 CLR
13:20 -9.4 °C -14.4 °C 33890.5 hPa NNW 17.9 km/h 17.9 km/h 55 % 0 mm 381.0 W/m2 CLR
13:25 -9.8 °C -14.7 °C 33890.5 hPa North 3.1 km/h 3.1 km/h 55 % 0 mm 355.0 W/m2 CLR
13:30 -10.1 °C -14.7 °C 33890.5 hPa Calm     57 % 0 mm 188.0 W/m2 CLR
13:35 -10.4 °C -15.2 °C 33890.5 hPa NNW 26.9 km/h 26.9 km/h 56 % 0 mm 209.0 W/m2 CLR
13:40 -10.1 °C -15 °C 33890.5 hPa NNW 20.9 km/h 20.9 km/h 55 % 0 mm 214.0 W/m2 CLR
13:45 -10.4 °C -15.3 °C 33880.3 hPa NE 20.9 km/h 20.9 km/h 55 % 0 mm 213.0 W/m2 CLR
13:50 -10.4 °C -15 °C 33880.3 hPa NNE 15 km/h 15 km/h 57 % 0 mm 251.0 W/m2 CLR
13:55 -10.4 °C -15 °C 33880.3 hPa NNW 3.1 km/h   57 % 0 mm 225.0 W/m2 CLR
14:00 -10.4 °C -14.9 °C 33880.3 hPa ENE 20.9 km/h 20.9 km/h 58 % 0 mm 227.0 W/m2 CLR
14:05 -10.4 °C -14.9 °C 33880.3 hPa NNE 20.9 km/h 20.9 km/h 58 % 0 mm 250.0 W/m2 CLR
14:10 -10.4 °C -15 °C 33880.3 hPa North 23.8 km/h 23.8 km/h 57 % 0 mm 123.0 W/m2 CLR
14:15 -10.4 °C -15.2 °C 33880.3 hPa Calm     56 % 0 mm 91.0 W/m2 CLR
14:20 -10.4 °C -15 °C 33880.3 hPa NW 18.2 km/h 18.2 km/h 57 % 0 mm 88.0 W/m2 CLR
14:25 -10.4 °C -14.9 °C 33880.3 hPa NNW 23.8 km/h 23.8 km/h 58 % 0 mm 74.0 W/m2 CLR
14:30 -10.4 °C -14.9 °C 33880.3 hPa NW 23.8 km/h 23.8 km/h 58 % 0 mm 225.0 W/m2 FEW
14:35 -10.1 °C -14.6 °C 33880.3 hPa NW 23.8 km/h 23.8 km/h 58 % 0 mm 490.0 W/m2 CLR
14:40 -9.8 °C -14.3 °C 33866.8 hPa NNE 23.3 km/h 23.3 km/h 58 % 0 mm 418.0 W/m2 CLR
14:45 -9.4 °C -14.4 °C 33866.8 hPa North 33.6 km/h 33.6 km/h 55 % 0 mm 218.0 W/m2 CLR
14:50 -9.8 °C -14.7 °C 33866.8 hPa NW 29.8 km/h 29.8 km/h 55 % 0 mm 148.0 W/m2 CLR
14:55 -9.8 °C -14.9 °C 33866.8 hPa NNW 41.7 km/h 41.7 km/h 54 % 0 mm 181.0 W/m2 CLR
15:00 -9.8 °C -15 °C 33866.8 hPa WNW 41.7 km/h 41.7 km/h 53 % 0 mm 220.0 W/m2 CLR
15:05 -9.8 °C -15 °C 33866.8 hPa North 53.6 km/h 53.6 km/h 53 % 0 mm 193.0 W/m2 CLR
15:10 -9.8 °C -14.7 °C 33866.8 hPa North 50.7 km/h 50.7 km/h 55 % 0 mm 193.0 W/m2 CLR
15:15 -9.8 °C -14.4 °C 33866.8 hPa NE 53.6 km/h 53.6 km/h 57 % 0 mm 687.0 W/m2 CLR
15:20 -9.4 °C -13.8 °C 33866.8 hPa NNE 50.7 km/h 50.7 km/h 59 % 0 mm 673.0 W/m2 CLR
15:25 -9.4 °C -13.8 °C 33856.6 hPa NNE 23.8 km/h 23.8 km/h 59 % 0 mm 181.0 W/m2 CLR
15:30 -10.1 °C -14.3 °C 33866.8 hPa North 23.8 km/h 23.8 km/h 60 % 0 mm 214.0 W/m2 CLR
15:35 -10.1 °C -14.6 °C 33866.8 hPa North 29.8 km/h 29.8 km/h 58 % 0 mm 679.0 W/m2 CLR
15:40 -9.8 °C -14.3 °C 33866.8 hPa NNE 35.7 km/h 35.7 km/h 58 % 0 mm 186.0 W/m2 CLR
15:45 -10.1 °C -14.3 °C 33866.8 hPa North 26.9 km/h 26.9 km/h 60 % 0 mm 526.0 W/m2 CLR
15:50 -10.1 °C -14.3 °C 33866.8 hPa NNE 31.1 km/h 31.1 km/h 60 % 0 mm 536.0 W/m2 CLR
15:55 -10.1 °C -14.3 °C 33866.8 hPa North 49.2 km/h 49.2 km/h 60 % 0 mm 645.0 W/m2 CLR
16:00 -9.8 °C -13.8 °C 33866.8 hPa NNE 50.7 km/h 50.7 km/h 62 % 0 mm 668.0 W/m2 CLR
16:05 -9.8 °C -13.5 °C 33866.8 hPa North 41.7 km/h 41.7 km/h 64 % 0 mm 573.0 W/m2 CLR
16:10 -9.8 °C -13.4 °C 33866.8 hPa ENE 35.7 km/h 35.7 km/h 65 % 0 mm 541.0 W/m2 CLR
16:15 -9.8 °C -13.6 °C 33866.8 hPa North 26.9 km/h 26.9 km/h 63 % 0 mm 548.0 W/m2 CLR
16:20 -9.8 °C -13.6 °C 33866.8 hPa NNE 38.8 km/h 38.8 km/h 63 % 0 mm 596.0 W/m2 CLR
16:30 -10.1 °C -14.1 °C 33880.3 hPa NE 32.8 km/h 32.8 km/h 62 % 0 mm 575.0 W/m2 CLR
16:35 -10.1 °C -13.8 °C 33880.3 hPa NNE 29.8 km/h 29.8 km/h 64 % 0 mm 438.0 W/m2 CLR
16:40 -10.1 °C -13.9 °C 33880.3 hPa North 29.8 km/h 29.8 km/h 63 % 0 mm 195.0 W/m2 CLR
16:45 -10.4 °C -14.2 °C 33890.5 hPa NNE 29.8 km/h 29.8 km/h 63 % 0 mm 246.0 W/m2 CLR
16:50 -10.7 °C -14.3 °C 33890.5 hPa NNE 9 km/h 9 km/h 65 % 0 mm 183.0 W/m2 CLR
16:55 -10.4 °C -14.3 °C 33890.5 hPa NNE 36.2 km/h 36.2 km/h 62 % 0 mm 102.0 W/m2 CLR
17:00 -10.4 °C -14.5 °C 33890.5 hPa North 44.7 km/h 44.7 km/h 61 % 0 mm 323.0 W/m2 CLR
17:05 -10.7 °C -14.4 °C 33890.5 hPa North 23.3 km/h 23.3 km/h 64 % 0 mm 248.0 W/m2 CLR
17:10 -10.7 °C -14.8 °C 33880.3 hPa NW 15.6 km/h 15.6 km/h 61 % 0 mm 218.0 W/m2 CLR
17:11 -10.7 °C -14.8 °C 33880.3 hPa NW 15 km/h 15 km/h 61 % 0 mm 125.0 W/m2 CLR
17:16 -10.7 °C -14.6 °C 33880.3 hPa NNW 15 km/h 15 km/h 62 % 0 mm 84.0 W/m2 CLR
17:21 -11 °C -14.9 °C 33880.3 hPa Calm     62 % 0 mm 56.0 W/m2 FEW
17:26 -11 °C -14.8 °C 33880.3 hPa Calm     63 % 0 mm 33.0 W/m2 SCT
17:31 -11 °C -14.9 °C 33880.3 hPa Calm     62 % 0 mm 12.0 W/m2 BKN
17:36 -11 °C -14.9 °C 33890.5 hPa West 18.2 km/h 18.2 km/h 62 % 0 mm 9.0 W/m2 BKN
17:41 -11 °C -14.8 °C 33900.6 hPa West 23.8 km/h 23.8 km/h 63 % 0 mm 21.0 W/m2 BKN
17:46 -11.3 °C -14.9 °C 33900.6 hPa WSW 20.9 km/h 20.9 km/h 64 % 0 mm 30.0 W/m2 BKN
17:51 -11.3 °C -14.9 °C 33900.6 hPa West 44.7 km/h 44.7 km/h 64 % 0 mm 44.0 W/m2 BKN
17:56 -11.3 °C -14.7 °C 33900.6 hPa West 35.7 km/h 35.7 km/h 66 % 0 mm 51.0 W/m2 SCT
18:01 -11.6 °C -14.6 °C 33900.6 hPa West 26.9 km/h 26.9 km/h 70 % 0 mm 42.0 W/m2 BKN
18:06 -11.6 °C -14.4 °C 33900.6 hPa West 20.9 km/h 20.9 km/h 71 % 0 mm 33.0 W/m2 BKN
18:11 -11.9 °C -14.6 °C 33900.6 hPa West 15.6 km/h 15.6 km/h 72 % 0 mm 37.0 W/m2 BKN
18:16 -11.9 °C -14.6 °C 33900.6 hPa West 18.2 km/h 18.2 km/h 72 % 0 mm 33.0 W/m2 BKN
18:21 -11.9 °C -14.4 °C 33900.6 hPa WNW 17.9 km/h 17.9 km/h 74 % 0 mm 37.0 W/m2 BKN
18:26 -11.9 °C -14.4 °C 33900.6 hPa WNW 29.8 km/h 29.8 km/h 74 % 0 mm 39.0 W/m2 BKN
18:31 -11.9 °C -14.3 °C 33900.6 hPa West 25.9 km/h 25.9 km/h 75 % 0 mm 30.0 W/m2 BKN
18:36 -12.2 °C -14.6 °C 33914.2 hPa West 25.9 km/h 25.9 km/h 75 % 0 mm 21.0 W/m2 BKN
18:41 -12.2 °C -14.6 °C 33914.2 hPa WNW 23.8 km/h 23.8 km/h 75 % 0 mm 12.0 W/m2 BKN
18:46 -12.2 °C -14.7 °C 33900.6 hPa WNW 29.8 km/h 29.8 km/h 74 % 0 mm 7.0 W/m2 BKN
18:51 -12.2 °C -14.7 °C 33914.2 hPa NW 29.8 km/h 29.8 km/h 74 % 0 mm 5.0 W/m2 OVC
18:56 -12.6 °C -14.9 °C 33914.2 hPa WNW 32.8 km/h 32.8 km/h 74 % 0 mm 0.0 W/m2 OVC
19:01 -12.6 °C -14.9 °C 33914.2 hPa WNW 20.9 km/h 20.9 km/h 75 % 0 mm 0.0 W/m2 CLR
19:06 -12.6 °C -14.9 °C 33914.2 hPa WNW 23.8 km/h 23.8 km/h 75 % 0 mm 0.0 W/m2 CLR
19:11 -12.6 °C -14.9 °C 33914.2 hPa WNW 26.9 km/h 26.9 km/h 74 % 0 mm 0.0 W/m2 CLR
19:16 -12.8 °C -15.2 °C 33914.2 hPa WNW 20.9 km/h 20.9 km/h 75 % 0 mm 0.0 W/m2 CLR
19:21 -12.8 °C -15.1 °C 33914.2 hPa WNW 23.8 km/h 23.8 km/h 76 % 0 mm 0.0 W/m2 CLR
19:26 -12.8 °C -15.1 °C 33914.2 hPa WNW 26.9 km/h 26.9 km/h 76 % 0 mm 0.0 W/m2 CLR
19:31 -12.8 °C -14.9 °C 33914.2 hPa WNW 26.9 km/h 26.9 km/h 77 % 0 mm 0.0 W/m2 CLR
19:36 -12.8 °C -14.8 °C 33914.2 hPa WNW 17.9 km/h 17.9 km/h 78 % 0 mm 0.0 W/m2 CLR
19:41 -12.8 °C -14.8 °C 33914.2 hPa Calm     78 % 0 mm 0.0 W/m2 CLR
19:46 -12.8 °C -14.8 °C 33924.3 hPa West 17.9 km/h 17.9 km/h 78 % 0 mm 0.0 W/m2 CLR
19:51 -13.2 °C -15.2 °C 33924.3 hPa West 15 km/h   78 % 0 mm 0.0 W/m2 CLR
19:56 -13.4 °C -15.4 °C 33924.3 hPa Calm     78 % 0 mm 0.0 W/m2 CLR
20:01 -13.8 °C -15.9 °C 33924.3 hPa Calm     77 % 0 mm 0.0 W/m2 CLR
20:06 -13.8 °C -15.9 °C 33924.3 hPa WNW 12.9 km/h 12.9 km/h 77 % 0 mm 0.0 W/m2 CLR
20:11 -14.1 °C -16.5 °C 33924.3 hPa NW 12.9 km/h 12.9 km/h 74 % 0 mm 0.0 W/m2 CLR
20:16 -14.4 °C -17.4 °C 33937.9 hPa NW 11.9 km/h 11.9 km/h 68 % 0 mm 0.0 W/m2 CLR
20:21 -14.4 °C -17.6 °C 33924.3 hPa NW 12.9 km/h 12.9 km/h 67 % 0 mm 0.0 W/m2 CLR
20:26 -14.7 °C -17.9 °C 33937.9 hPa Calm     66 % 0 mm 0.0 W/m2 CLR
20:31 -14.7 °C -17.9 °C 33937.9 hPa NW 9 km/h 9 km/h 66 % 0 mm 0.0 W/m2 CLR
20:36 -15 °C -18.2 °C 33937.9 hPa Calm     66 % 0 mm 0.0 W/m2 CLR
20:41 -15 °C -18.2 °C 33937.9 hPa Calm     66 % 0 mm 0.0 W/m2 CLR
20:46 -15.3 °C -18.4 °C 33948 hPa Calm     67 % 0 mm 0.0 W/m2 CLR
20:51 -15.3 °C -18.4 °C 33948 hPa Calm     67 % 0 mm 0.0 W/m2 CLR
20:56 -15.6 °C -18.9 °C 33948 hPa NW 15.6 km/h 15.6 km/h 65 % 0 mm 0.0 W/m2 CLR
21:01 -15.3 °C -18.7 °C 33948 hPa NW 3.1 km/h 3.1 km/h 65 % 0 mm 0.0 W/m2 CLR
21:06 -15.3 °C -18.5 °C 33948 hPa Calm     66 % 0 mm 0.0 W/m2 CLR
21:11 -15.6 °C -18.4 °C 33948 hPa Calm     70 % 0 mm 0.0 W/m2 CLR
21:16 -15.6 °C -18.3 °C 33948 hPa Calm     71 % 0 mm 0.0 W/m2 CLR
21:21 -15.6 °C -18.2 °C 33958.2 hPa Calm     72 % 0 mm 0.0 W/m2 CLR
21:26 -15.9 °C -18.6 °C 33958.2 hPa Calm     71 % 0 mm 0.0 W/m2 CLR
21:32 -15.9 °C -18.4 °C 33958.2 hPa Calm     72 % 0 mm 0.0 W/m2 CLR
21:37 -15.9 °C -18.3 °C 33958.2 hPa Calm     74 % 0 mm 0.0 W/m2 CLR
21:42 -15.9 °C -18.1 °C 33958.2 hPa Calm     76 % 0 mm 0.0 W/m2 CLR
21:47 -15.9 °C -17.9 °C 33958.2 hPa Calm     78 % 0 mm 0.0 W/m2 CLR
21:52 -15.9 °C -17.9 °C 33958.2 hPa Calm     78 % 0 mm 0.0 W/m2 CLR
21:57 -15.9 °C -17.7 °C 33958.2 hPa Calm     79 % 0 mm 0.0 W/m2 CLR
22:02 -15.9 °C -17.7 °C 33971.7 hPa Calm     79 % 0 mm 0.0 W/m2 CLR
22:06 -15.9 °C -17.7 °C 33971.7 hPa Calm     79 % 0 mm 0.0 W/m2 CLR
22:11 -16.2 °C -18.2 °C 33958.2 hPa Calm     78 % 0 mm 0.0 W/m2 CLR
22:16 -16.2 °C -18.2 °C 33958.2 hPa Calm     77 % 0 mm 0.0 W/m2 CLR
22:21 -16.2 °C -18.2 °C 33971.7 hPa Calm     77 % 0 mm 0.0 W/m2 CLR
22:26 -16.2 °C -18.2 °C 33971.7 hPa Calm     77 % 0 mm 0.0 W/m2 CLR
22:31 -16.2 °C -18.6 °C 33971.7 hPa West 18.2 km/h 18.2 km/h 74 % 0 mm 0.0 W/m2 CLR
22:34 -16.2 °C -18.8 °C 33971.7 hPa WNW 23.8 km/h 23.8 km/h 72 % 0 mm 0.0 W/m2 CLR
22:36 -16.6 °C -19.2 °C 33971.7 hPa NW 20.9 km/h 20.9 km/h 71 % 0 mm 0.0 W/m2 CLR
22:41 -16.6 °C -19.6 °C 33971.7 hPa WNW 26.9 km/h 26.9 km/h 67 % 0 mm 0.0 W/m2 CLR
22:46 -16.6 °C -19.7 °C 33971.7 hPa WNW 20.9 km/h 20.9 km/h 66 % 0 mm 0.0 W/m2 CLR
22:50 -16.6 °C -19.7 °C 33971.7 hPa WNW 20.9 km/h 20.9 km/h 66 % 0 mm 0.0 W/m2 CLR
22:55 -16.6 °C -19.7 °C 33971.7 hPa WNW 20.9 km/h 20.9 km/h 66 % 0 mm 0.0 W/m2 CLR
23:00 -16.6 °C -19.7 °C 33971.7 hPa West 29.8 km/h 29.8 km/h 66 % 0 mm 0.0 W/m2 CLR
23:05 -16.6 °C -19.6 °C 33981.9 hPa West 17.9 km/h 17.9 km/h 67 % 0 mm 0.0 W/m2 CLR
23:10 -16.6 °C -19.4 °C 33981.9 hPa WNW 15 km/h   69 % 0 mm 0.0 W/m2 CLR
23:15 -16.6 °C -19.3 °C 33981.9 hPa WNW 29.8 km/h 29.8 km/h 70 % 0 mm 0.0 W/m2 CLR
23:17 -16.6 °C -19.3 °C 33981.9 hPa WNW 29.8 km/h 29.8 km/h 70 % 0 mm 0.0 W/m2 CLR
23:22 -16.6 °C -19.5 °C 33981.9 hPa WNW 32.8 km/h 32.8 km/h 68 % 0 mm 0.0 W/m2 CLR
23:27 -16.6 °C -19.7 °C 33981.9 hPa NW 32.8 km/h 32.8 km/h 66 % 0 mm 0.0 W/m2 CLR
23:28 -16.6 °C -19.7 °C 33981.9 hPa WNW 29.8 km/h 29.8 km/h 66 % 0 mm 0.0 W/m2 CLR
23:33 -16.6 °C -19.7 °C 33992.1 hPa WNW 26.9 km/h 26.9 km/h 66 % 0 mm 0.0 W/m2 CLR
23:38 -16.6 °C -19.8 °C 33992.1 hPa WNW 29.8 km/h 29.8 km/h 65 % 0 mm 0.0 W/m2 CLR
23:43 -16.8 °C -20.1 °C 33992.1 hPa WNW 32.8 km/h 32.8 km/h 65 % 0 mm 0.0 W/m2 CLR
23:46 -16.8 °C -20.2 °C 33992.1 hPa WNW 32.8 km/h 32.8 km/h 64 % 0 mm 0.0 W/m2 CLR
23:48 -16.8 °C -20.2 °C 33992.1 hPa WNW 29.8 km/h 29.8 km/h 64 % 0 mm 0.0 W/m2 CLR
23:53 -16.8 °C -20.2 °C 33992.1 hPa NW 29.8 km/h 29.8 km/h 64 % 0 mm 0.0 W/m2 CLR
23:58 -16.8 °C -20.2 °C 33992.1 hPa WNW 35.7 km/h 35.7 km/h 64 % 0 mm 0.0 W/m2 CLR
Lo Temps de Massalio
Compliments of Weather Underground - 1.25 mb